Time;durP1;ratioP1;P1;durP2;ratioP2;P2;SDS_P1;SDS_P2;PMS_P1;PMS_P2;Temp;Humidity;BMP_temperature;BMP_pressure;BME280_temperature;BME280_humidity;BME280_pressure;Samples;Min_cycle;Max_cycle;Signal;HPM_P1;HPM_P2
2022/06/29 00:01:58;;;;;;;8.85;3.15;;;;;;;28.73;42.42;98647.75;4474640;31;20088;-82
2022/06/29 00:04:24;;;;;;;8.35;3.40;;;;;;;28.71;42.43;98650.66;4502134;31;20096;-82
2022/06/29 00:06:49;;;;;;;10.38;3.87;;;;;;;28.70;42.40;98643.53;4487736;31;20096;-82
2022/06/29 00:09:14;;;;;;;9.07;3.17;;;;;;;28.70;42.35;98643.53;4501919;31;20143;-82
2022/06/29 00:11:40;;;;;;;9.20;3.25;;;;;;;28.70;42.34;98634.56;4487747;31;20123;-82
2022/06/29 00:14:05;;;;;;;9.50;3.03;;;;;;;28.69;42.35;98649.19;4502383;31;20123;-81
2022/06/29 00:16:31;;;;;;;9.20;3.03;;;;;;;28.68;42.46;98645.63;4502240;31;20115;-82
2022/06/29 00:18:56;;;;;;;8.85;2.95;;;;;;;28.67;42.54;98649.38;4502150;31;20431;-82
2022/06/29 00:21:22;;;;;;;8.82;3.30;;;;;;;28.69;42.48;98646.47;4501908;31;20449;-82
2022/06/29 00:23:47;;;;;;;10.63;3.05;;;;;;;28.67;42.53;98629.59;4501865;31;20360;-81
2022/06/29 00:26:12;;;;;;;8.32;3.20;;;;;;;28.65;42.64;98635.19;4501939;31;20085;-81
2022/06/29 00:28:38;;;;;;;9.68;3.40;;;;;;;28.63;42.63;98631.88;4501622;31;20362;-82
2022/06/29 00:31:04;;;;;;;7.87;2.90;;;;;;;28.62;42.66;98628.28;4501781;31;20115;-82
2022/06/29 00:33:29;;;;;;;8.38;3.20;;;;;;;28.63;42.66;98631.88;4501417;31;20100;-82
2022/06/29 00:35:54;;;;;;;8.63;3.25;;;;;;;28.63;42.62;98626.44;4501691;31;20402;-81
2022/06/29 00:38:20;;;;;;;9.60;3.75;;;;;;;28.63;42.54;98624.56;4501620;31;20487;-82
2022/06/29 00:40:45;;;;;;;8.20;3.12;;;;;;;28.62;42.57;98627.47;4501571;31;20419;-82
2022/06/29 00:43:11;;;;;;;8.90;3.17;;;;;;;28.60;42.58;98624.94;4501691;31;20100;-81
2022/06/29 00:45:36;;;;;;;6.50;2.92;;;;;;;28.56;42.60;98620.97;4487088;31;20100;-82
2022/06/29 00:48:02;;;;;;;9.73;3.30;;;;;;;28.57;42.64;98616.41;4501548;31;20088;-83
2022/06/29 00:50:31;;;;;;;9.63;3.53;;;;;;;28.56;42.72;98618.28;4487193;31;20076;-83
2022/06/29 00:53:01;;;;;;;9.02;3.30;;;;;;;28.56;42.52;98612.84;4501494;31;20092;-85
2022/06/29 00:55:30;;;;;;;10.55;3.37;;;;;;;28.54;42.58;98614.09;4501529;31;20064;-84
2022/06/29 00:57:58;;;;;;;7.80;3.17;;;;;;;28.51;42.57;98612.66;4486847;31;20088;-87
2022/06/29 01:00:23;;;;;;;8.43;3.10;;;;;;;28.52;42.59;98610.75;4492456;31;20068;-85
2022/06/29 01:02:49;;;;;;;8.38;3.30;;;;;;;28.48;42.58;98620.31;4484524;32;20131;-83
2022/06/29 01:05:15;;;;;;;9.23;3.45;;;;;;;28.52;42.40;98616.19;4485774;31;20149;-83
2022/06/29 01:07:41;;;;;;;7.72;3.47;;;;;;;28.46;42.54;98615.09;4484453;32;20190;-82
2022/06/29 01:10:06;;;;;;;9.77;3.47;;;;;;;28.54;42.59;98612.22;4484431;32;20107;-84
2022/06/29 01:12:32;;;;;;;8.57;3.70;;;;;;;28.57;42.69;98609.13;4487680;31;20123;-83
2022/06/29 01:14:58;;;;;;;9.60;4.12;;;;;;;28.50;42.94;98608.22;4486805;32;20160;-83
2022/06/29 01:17:24;;;;;;;8.52;3.70;;;;;;;28.50;43.06;98605.50;4487894;31;20060;-83
2022/06/29 01:19:50;;;;;;;11.15;3.62;;;;;;;28.47;43.37;98613.22;4491562;31;20144;-83
2022/06/29 01:22:17;;;;;;;10.32;3.40;;;;;;;28.47;43.48;98608.63;4500206;31;20157;-82
2022/06/29 01:24:46;;;;;;;10.38;3.45;;;;;;;28.28;44.03;98625.62;4503657;31;20092;-83
2022/06/29 01:27:13;;;;;;;10.10;3.97;;;;;;;28.32;43.81;98613.34;4503565;31;20114;-83
2022/06/29 01:29:39;;;;;;;9.80;3.85;;;;;;;28.36;43.74;98607.34;4489246;31;20140;-83
2022/06/29 01:32:06;;;;;;;8.75;3.60;;;;;;;28.40;43.77;98611.31;4489171;31;20112;-83
2022/06/29 01:34:33;;;;;;;9.80;3.45;;;;;;;28.40;43.92;98613.19;4489242;31;20104;-83
2022/06/29 01:36:59;;;;;;;;;;;;;;;28.39;44.04;98600.69;4489308;31;20076;-83
2022/06/29 01:39:25;;;;;;;9.38;3.45;;;;;;;28.50;43.95;98602.81;4489249;31;20010;-82
2022/06/29 01:41:50;;;;;;;8.85;3.47;;;;;;;28.36;44.11;98599.22;4489132;31;20096;-83
2022/06/29 01:44:16;;;;;;;8.60;3.55;;;;;;;28.33;44.13;98602.31;4489221;31;20507;-83
2022/06/29 01:46:41;;;;;;;10.50;3.58;;;;;;;28.31;44.12;98601.69;4503804;31;20401;-83
2022/06/29 01:49:07;;;;;;;9.68;3.45;;;;;;;28.31;44.17;98600.88;4503654;31;20075;-83
2022/06/29 01:51:33;;;;;;;9.40;3.22;;;;;;;28.32;44.36;98600.66;4503728;31;20127;-83
2022/06/29 01:53:58;;;;;;;11.43;3.90;;;;;;;28.27;44.76;98596.91;4503812;31;20104;-83
2022/06/29 01:56:23;;;;;;;9.68;3.62;;;;;;;28.33;44.26;98593.38;4503617;31;20148;-83
2022/06/29 01:58:50;;;;;;;6.97;3.30;;;;;;;28.26;44.15;98592.50;4503541;31;20101;-83
2022/06/29 02:01:15;;;;;;;8.30;3.55;;;;;;;28.22;44.17;98597.47;4489157;31;20131;-83
2022/06/29 02:03:41;;;;;;;9.50;3.90;;;;;;;28.22;44.12;98594.78;4503618;31;20143;-83
2022/06/29 02:06:06;;;;;;;9.90;3.20;;;;;;;28.21;43.99;98593.13;4503618;31;20083;-83
2022/06/29 02:08:32;;;;;;;9.50;3.62;;;;;;;28.21;44.00;98587.69;4503487;31;20079;-82
2022/06/29 02:10:58;;;;;;;9.02;3.50;;;;;;;28.20;43.98;98581.47;4503601;31;20096;-82
2022/06/29 02:13:24;;;;;;;8.77;3.20;;;;;;;28.20;43.88;98595.00;4503598;31;20570;-83
2022/06/29 02:15:49;;;;;;;7.60;3.30;;;;;;;28.21;43.85;98596.66;4503443;31;20084;-82
2022/06/29 02:18:15;;;;;;;9.27;3.42;;;;;;;28.21;43.94;98598.53;4503468;31;20103;-83
2022/06/29 02:20:40;;;;;;;9.73;4.30;;;;;;;28.19;44.05;98592.50;4503503;31;20193;-83
2022/06/29 02:23:06;;;;;;;10.15;3.92;;;;;;;28.22;43.68;98587.50;4488976;31;20135;-83
2022/06/29 02:25:31;;;;;;;7.75;3.53;;;;;;;28.21;43.58;98593.94;4503535;31;20084;-83
2022/06/29 02:27:57;;;;;;;8.23;3.60;;;;;;;28.22;43.71;98602.91;4503431;31;20128;-83
2022/06/29 02:35:54;;;;;;;10.82;3.80;;;;;;;28.18;43.93;98594.38;4453878;32;20199;-83
2022/06/29 02:38:20;;;;;;;10.68;4.05;;;;;;;28.14;44.01;98590.37;4453657;32;20117;-83
2022/06/29 02:40:45;;;;;;;8.70;3.67;;;;;;;28.00;44.54;98592.19;4453805;32;20120;-83
2022/06/29 02:43:11;;;;;;;9.00;3.70;;;;;;;28.03;44.46;98593.66;4440742;32;20247;-83
2022/06/29 02:45:36;;;;;;;10.77;4.80;;;;;;;28.06;44.36;98587.00;4440898;32;20483;-83
2022/06/29 02:48:02;;;;;;;10.35;3.90;;;;;;;28.01;44.20;98591.16;4453805;32;20503;-83
2022/06/29 02:50:28;;;;;;;11.02;4.20;;;;;;;28.02;44.08;98592.81;4440682;32;20117;-83
2022/06/29 02:52:53;;;;;;;9.75;4.07;;;;;;;27.95;44.39;98589.25;4453741;32;20173;-83
2022/06/29 02:55:18;;;;;;;10.43;4.55;;;;;;;28.00;44.23;98592.19;4440724;32;20112;-83
2022/06/29 02:57:44;;;;;;;9.82;4.28;;;;;;;27.96;44.34;98584.69;4453597;32;20384;-82
2022/06/29 03:00:11;;;;;;;8.43;3.60;;;;;;;27.92;44.39;98581.53;4453500;32;20527;-83
2022/06/29 03:02:37;;;;;;;9.45;4.10;;;;;;;28.02;43.79;98581.16;4440707;32;20105;-83
2022/06/29 03:05:02;;;;;;;9.38;4.20;;;;;;;28.04;43.75;98585.31;4440583;32;20120;-83
2022/06/29 03:07:28;;;;;;;12.15;4.10;;;;;;;28.01;44.10;98587.62;4453791;32;20104;-83
2022/06/29 03:09:53;;;;;;;11.45;4.30;;;;;;;28.09;43.94;98589.31;4472053;31;20127;-83
2022/06/29 03:12:18;;;;;;;11.52;4.03;;;;;;;28.20;43.91;98589.59;4503009;31;20113;-83
2022/06/29 03:14:44;;;;;;;9.48;4.20;;;;;;;28.21;43.51;98590.41;4502795;31;20112;-83
2022/06/29 03:17:09;;;;;;;10.82;4.45;;;;;;;28.12;43.72;98595.16;4502830;31;20137;-83
2022/06/29 03:19:35;;;;;;;11.32;4.30;;;;;;;28.26;43.48;98601.47;4502772;31;20447;-83
2022/06/29 03:22:00;;;;;;;10.30;4.45;;;;;;;28.34;43.39;98595.06;4502744;31;20150;-83
2022/06/29 03:24:26;;;;;;;10.60;4.28;;;;;;;28.36;43.00;98599.22;4502833;31;20087;-83
2022/06/29 03:26:51;;;;;;;11.75;4.45;;;;;;;28.41;42.96;98595.88;4502747;31;20080;-82
2022/06/29 03:29:17;;;;;;;10.35;4.47;;;;;;;28.44;42.69;98603.63;4502502;31;20096;-83
2022/06/29 03:31:42;;;;;;;13.20;4.82;;;;;;;28.49;42.57;98601.16;4502819;31;20128;-83
2022/06/29 03:34:08;;;;;;;12.30;5.00;;;;;;;28.62;42.34;98595.78;4501786;31;20119;-83
2022/06/29 03:36:33;;;;;;;9.27;4.55;;;;;;;28.61;42.52;98596.81;4502690;31;20089;-83
2022/06/29 03:38:58;;;;;;;10.73;4.45;;;;;;;28.60;42.42;98595.12;4502555;31;20088;-83
2022/06/29 03:41:24;;;;;;;11.45;5.05;;;;;;;28.69;42.45;98600.41;4502541;31;20122;-83
2022/06/29 03:43:49;;;;;;;9.30;4.85;;;;;;;28.77;42.18;98606.44;4488262;31;20128;-83
2022/06/29 03:46:15;;;;;;;9.60;4.68;;;;;;;28.83;41.57;98611.03;4502487;31;20148;-83
2022/06/29 03:48:40;;;;;;;10.40;5.10;;;;;;;28.87;41.34;98605.22;4502551;31;20170;-83
2022/06/29 03:51:06;;;;;;;10.30;4.90;;;;;;;28.93;41.27;98609.81;4502506;31;20088;-83
2022/06/29 03:53:31;;;;;;;9.00;4.53;;;;;;;28.88;41.61;98604.16;4502428;31;20149;-83
2022/06/29 03:55:56;;;;;;;20.48;5.68;;;;;;;28.93;41.73;98607.91;4502471;31;20399;-83
2022/06/29 03:58:22;;;;;;;11.98;5.15;;;;;;;28.95;41.52;98607.72;4502406;31;20477;-83
2022/06/29 04:00:48;;;;;;;10.25;4.97;;;;;;;28.97;41.18;98609.19;4502141;31;20426;-82
2022/06/29 04:03:13;;;;;;;9.98;4.80;;;;;;;28.90;41.67;98599.41;4502381;31;20115;-83
2022/06/29 04:05:38;;;;;;;9.82;5.30;;;;;;;29.07;41.42;98597.94;4500045;31;20131;-83
2022/06/29 04:08:04;;;;;;;11.52;5.00;;;;;;;29.10;40.91;98602.94;4494625;31;20469;-83
2022/06/29 04:10:30;;;;;;;11.82;5.10;;;;;;;29.21;40.54;98602.34;4487956;31;20099;-83
2022/06/29 04:12:55;;;;;;;10.40;5.00;;;;;;;29.34;40.33;98600.66;4487712;31;20110;-83
2022/06/29 04:15:21;;;;;;;12.27;5.10;;;;;;;29.49;40.34;98603.16;4502143;31;20138;-83
2022/06/29 04:17:46;;;;;;;15.50;5.62;;;;;;;29.64;39.88;98595.62;4502083;31;20095;-83
2022/06/29 04:21:05;;;;;;;10.38;4.97;;;;;;;29.66;40.18;98595.44;4501901;31;20144;-83
2022/06/29 04:23:02;;;;;;;13.27;5.10;;;;;;;29.84;39.48;98595.62;4501836;31;20091;-83
2022/06/29 04:25:27;;;;;;;11.23;5.37;;;;;;;29.89;39.82;98597.72;4487713;31;20089;-83
2022/06/29 04:27:54;;;;;;;9.98;5.10;;;;;;;29.94;39.48;98597.87;4487675;31;20096;-83
2022/06/29 04:30:20;;;;;;;10.25;4.85;;;;;;;29.96;39.00;98596.63;4487837;31;20111;-83
2022/06/29 04:32:45;;;;;;;30.20;6.18;;;;;;;30.03;38.76;98601.22;4502204;31;20363;-83
2022/06/29 04:35:11;;;;;;;12.88;5.37;;;;;;;30.10;38.74;98600.13;4502246;31;20172;-82
2022/06/29 04:37:36;;;;;;;12.35;5.37;;;;;;;30.15;38.43;98603.06;4487765;31;20120;-84
2022/06/29 04:40:03;;;;;;;10.90;5.40;;;;;;;30.27;38.42;98603.22;4501915;31;20110;-83
2022/06/29 04:42:29;;;;;;;11.73;5.03;;;;;;;30.45;38.27;98609.84;4501937;31;20096;-84
2022/06/29 04:44:54;;;;;;;12.50;5.18;;;;;;;30.73;37.04;98609.47;4502029;31;20403;-84
2022/06/29 04:47:20;;;;;;;10.68;5.00;;;;;;;30.65;37.44;98609.75;4503803;31;20096;-83
2022/06/29 04:49:45;;;;;;;12.10;5.18;;;;;;;30.59;37.55;98606.00;4504029;31;20395;-84
2022/06/29 04:52:12;;;;;;;8.95;4.87;;;;;;;30.70;37.25;98605.31;4504209;31;20509;-83
2022/06/29 04:54:37;;;;;;;12.43;5.40;;;;;;;30.84;36.82;98600.63;4504051;31;20080;-83
2022/06/29 04:57:03;;;;;;;10.77;5.12;;;;;;;30.92;36.92;98605.81;4503976;31;20206;-82
2022/06/29 04:59:29;;;;;;;11.82;5.25;;;;;;;30.96;36.99;98604.34;4489742;31;20107;-82
2022/06/29 05:01:54;;;;;;;11.93;5.65;;;;;;;31.06;36.61;98601.16;4489284;31;20435;-82
2022/06/29 05:04:20;;;;;;;12.07;5.50;;;;;;;31.14;36.24;98602.75;4489394;31;20088;-82
2022/06/29 05:06:45;;;;;;;13.15;5.55;;;;;;;31.17;36.59;98603.12;4503701;31;20504;-83
2022/06/29 05:09:11;;;;;;;11.88;5.30;;;;;;;31.25;36.01;98602.00;4503696;31;20192;-83
2022/06/29 05:11:36;;;;;;;10.52;5.22;;;;;;;31.36;35.99;98609.47;4503691;31;20372;-83
2022/06/29 05:14:01;;;;;;;9.63;5.18;;;;;;;31.38;36.13;98597.53;4489321;31;20080;-83
2022/06/29 05:16:27;;;;;;;10.00;5.32;;;;;;;31.43;36.20;98603.12;4503640;31;20091;-82
2022/06/29 05:18:52;;;;;;;10.73;5.40;;;;;;;31.43;35.65;98603.97;4503479;31;20110;-83
2022/06/29 05:21:19;;;;;;;11.02;5.12;;;;;;;31.41;35.94;98614.25;4475971;31;20197;-81
2022/06/29 05:23:45;;;;;;;11.85;5.90;;;;;;;31.56;35.74;98613.91;4489461;31;20106;-81
2022/06/29 05:26:10;;;;;;;11.85;5.20;;;;;;;31.37;36.27;98610.31;4503613;31;20354;-81
2022/06/29 05:28:36;;;;;;;15.40;4.95;;;;;;;31.45;36.49;98620.09;4489285;31;20148;-82
2022/06/29 05:31:01;;;;;;;11.02;4.60;;;;;;;31.58;36.39;98616.41;4503696;31;20428;-82
2022/06/29 05:33:36;;;;;;;11.80;5.87;;;;;;;31.70;35.75;98622.81;4503557;31;20098;-81
2022/06/29 05:36:02;;;;;;;10.10;5.47;;;;;;;31.88;35.61;98613.81;4503682;31;20146;-81
2022/06/29 05:38:29;;;;;;;23.65;6.05;;;;;;;31.98;35.16;98614.13;4503499;31;20110;-82
2022/06/29 05:40:55;;;;;;;19.92;8.43;;;;;;;32.05;35.09;98619.53;4503627;31;20117;-81
2022/06/29 05:43:20;;;;;;;10.60;5.53;;;;;;;32.21;35.16;98613.47;4503400;31;20079;-82
2022/06/29 05:45:47;;;;;;;11.88;5.53;;;;;;;32.26;34.22;98616.34;4501424;31;20100;-82
2022/06/29 05:48:13;;;;;;;22.73;6.40;;;;;;;32.27;34.42;98598.09;4503510;31;20088;-81
2022/06/29 05:50:38;;;;;;;11.10;5.32;;;;;;;32.47;34.15;98595.09;4503368;31;20079;-81
2022/06/29 05:53:04;;;;;;;11.73;5.28;;;;;;;32.56;33.83;98590.16;4503284;31;20102;-82
2022/06/29 05:55:29;;;;;;;14.65;6.95;;;;;;;32.51;33.96;98596.31;4489033;31;20096;-81
2022/06/29 05:57:55;;;;;;;10.25;5.50;;;;;;;32.45;34.27;98598.06;4502880;31;20114;-81
2022/06/29 06:00:20;;;;;;;10.05;5.45;;;;;;;32.72;33.69;98594.97;4503058;31;20114;-81
2022/06/29 06:02:46;;;;;;;12.77;5.30;;;;;;;32.75;33.76;98593.72;4488869;31;20127;-81
2022/06/29 06:05:11;;;;;;;11.50;5.53;;;;;;;32.71;33.21;98598.78;4503235;31;20371;-81
2022/06/29 06:07:37;;;;;;;15.32;5.50;;;;;;;32.83;33.33;98593.38;4503301;31;20104;-81
2022/06/29 06:10:03;;;;;;;11.50;5.35;;;;;;;32.71;33.70;98585.97;4503208;31;20103;-82
2022/06/29 06:12:30;;;;;;;13.82;5.45;;;;;;;32.82;33.51;98588.97;4488979;31;20088;-81
2022/06/29 06:14:58;;;;;;;11.27;5.50;;;;;;;32.99;33.10;98583.66;4489099;31;20104;-82
2022/06/29 06:17:26;;;;;;;35.53;19.87;;;;;;;33.02;32.48;98586.75;4489061;31;20170;-81
2022/06/29 06:19:52;;;;;;;11.90;5.43;;;;;;;33.07;33.05;98589.63;4503174;31;20163;-82
2022/06/29 06:22:18;;;;;;;12.68;5.28;;;;;;;32.97;32.97;98580.34;4503188;31;20110;-81
2022/06/29 06:24:43;;;;;;;11.00;5.05;;;;;;;33.06;32.91;98585.22;4503304;31;20115;-82
2022/06/29 06:27:08;;;;;;;11.98;5.47;;;;;;;33.28;32.86;98579.22;4503246;31;20106;-82
2022/06/29 06:29:34;;;;;;;10.85;5.60;;;;;;;33.13;33.16;98585.16;4503106;31;20092;-81
2022/06/29 06:32:01;;;;;;;90.82;20.58;;;;;;;33.20;32.90;98577.69;4503212;31;20140;-82
2022/06/29 06:34:26;;;;;;;32.67;17.62;;;;;;;33.38;32.54;98582.22;4503179;31;20097;-82
2022/06/29 06:36:52;;;;;;;12.15;5.97;;;;;;;33.35;32.63;98582.69;4503063;31;20371;-82
2022/06/29 06:39:17;;;;;;;13.82;5.50;;;;;;;33.46;32.38;98587.31;4475499;31;20123;-82
2022/06/29 06:41:43;;;;;;;17.40;8.93;;;;;;;33.61;32.23;98588.72;4502903;31;20080;-82
2022/06/29 06:44:09;;;;;;;11.27;5.45;;;;;;;33.58;32.65;98594.69;4503070;31;20515;-81
2022/06/29 06:46:35;;;;;;;18.80;11.48;;;;;;;33.47;32.80;98590.87;4503046;31;20406;-82
2022/06/29 06:49:01;;;;;;;12.27;5.60;;;;;;;33.54;32.96;98582.59;4502997;31;20121;-82
2022/06/29 06:51:26;;;;;;;12.20;6.30;;;;;;;33.65;32.10;98579.03;4488742;31;20162;-82
2022/06/29 06:53:52;;;;;;;31.75;9.60;;;;;;;33.60;32.69;98576.97;4488516;31;20108;-82
2022/06/29 06:56:18;;;;;;;32.90;16.90;;;;;;;33.73;32.92;98578.69;4496415;31;206724;-82
2022/06/29 06:58:44;;;;;;;14.77;7.28;;;;;;;33.65;32.62;98577.13;4502911;31;20123;-82
2022/06/29 07:01:10;;;;;;;13.60;5.72;;;;;;;33.80;32.49;98582.09;4488344;31;20088;-81
2022/06/29 07:03:37;;;;;;;18.65;11.90;;;;;;;33.81;31.91;98574.75;4488741;31;20505;-82
2022/06/29 07:06:04;;;;;;;15.43;8.47;;;;;;;33.80;32.27;98571.16;4488526;31;20168;-82
2022/06/29 07:08:31;;;;;;;10.15;5.78;;;;;;;33.99;32.14;98560.09;4487564;31;20114;-82
2022/06/29 07:10:58;;;;;;;11.20;6.03;;;;;;;34.02;32.09;98574.09;4502970;31;20154;-82
2022/06/29 07:13:23;;;;;;;12.37;6.00;;;;;;;33.88;32.56;98567.22;4488505;31;20100;-82
2022/06/29 07:15:48;;;;;;;12.43;5.30;;;;;;;33.92;32.47;98564.84;4502875;31;20136;-82
2022/06/29 07:18:14;;;;;;;10.85;5.50;;;;;;;33.95;32.35;98558.91;4502915;31;20079;-82
2022/06/29 07:20:39;;;;;;;45.38;21.37;;;;;;;33.89;32.15;98563.44;4502738;31;20151;-82
2022/06/29 07:23:05;;;;;;;34.80;15.18;;;;;;;33.93;32.86;98550.94;4502659;31;20095;-82
2022/06/29 07:25:30;;;;;;;35.70;24.90;;;;;;;33.95;32.59;98550.72;4502765;31;20427;-82
2022/06/29 07:27:55;;;;;;;15.13;7.20;;;;;;;34.04;32.34;98558.28;4502742;31;20092;-82
2022/06/29 07:30:21;;;;;;;25.95;16.67;;;;;;;34.14;32.33;98557.66;4502658;31;20403;-83
2022/06/29 07:32:46;;;;;;;14.93;8.30;;;;;;;34.27;32.40;98567.53;4488305;31;20273;-82
2022/06/29 07:35:12;;;;;;;16.00;6.68;;;;;;;34.41;32.00;98562.59;4502714;31;20106;-83
2022/06/29 07:37:38;;;;;;;14.45;5.47;;;;;;;34.59;31.54;98556.91;4502689;31;20088;-83
2022/06/29 07:40:04;;;;;;;18.65;7.50;;;;;;;34.62;30.97;98561.06;4502556;31;20397;-82
2022/06/29 07:42:32;;;;;;;15.50;6.95;;;;;;;34.72;30.90;98563.19;4502632;31;20126;-83
2022/06/29 07:44:58;;;;;;;19.83;5.87;;;;;;;34.80;31.21;98568.25;4502456;31;20507;-82
2022/06/29 07:47:23;;;;;;;11.45;5.97;;;;;;;34.76;31.29;98561.63;4502627;31;20083;-83
2022/06/29 07:49:48;;;;;;;19.17;6.40;;;;;;;34.64;30.82;98557.00;4502505;31;20089;-83
2022/06/29 07:52:15;;;;;;;14.47;5.73;;;;;;;34.53;31.06;98552.41;4502472;31;20094;-82
2022/06/29 07:54:40;;;;;;;13.77;6.18;;;;;;;34.62;31.42;98542.75;4502549;31;20155;-82
2022/06/29 07:57:06;;;;;;;14.10;6.20;;;;;;;34.67;31.28;98552.97;4502661;31;20096;-83
2022/06/29 07:59:31;;;;;;;11.63;5.80;;;;;;;34.79;31.39;98556.50;4502596;31;20425;-82
2022/06/29 08:01:57;;;;;;;10.02;5.50;;;;;;;34.84;30.80;98550.25;4502440;31;20411;-83
2022/06/29 08:04:22;;;;;;;15.35;6.22;;;;;;;34.81;30.30;98551.59;4502647;31;20080;-83
2022/06/29 08:06:47;;;;;;;11.05;6.15;;;;;;;34.68;30.50;98564.78;4502439;31;20106;-82
2022/06/29 08:09:13;;;;;;;12.70;6.12;;;;;;;34.51;30.56;98560.03;4502490;31;20076;-82
2022/06/29 08:11:38;;;;;;;12.25;5.68;;;;;;;34.32;31.40;98558.59;4502410;31;20119;-82
2022/06/29 08:14:04;;;;;;;11.73;5.47;;;;;;;34.22;31.92;98551.00;4502545;31;20080;-82
2022/06/29 08:16:29;;;;;;;15.50;7.50;;;;;;;34.37;31.67;98550.50;4502384;31;20140;-82
2022/06/29 08:18:55;;;;;;;11.75;6.00;;;;;;;34.45;31.93;98550.09;4487995;31;20098;-82
2022/06/29 08:21:20;;;;;;;12.63;5.70;;;;;;;34.45;31.41;98548.19;4504042;31;20435;-82
2022/06/29 08:23:47;;;;;;;10.50;6.20;;;;;;;34.68;31.35;98549.19;4504353;31;20118;-83
2022/06/29 08:26:13;;;;;;;11.65;6.00;;;;;;;34.77;30.72;98549.59;4504414;31;20487;-83
2022/06/29 08:28:38;;;;;;;72.32;10.23;;;;;;;34.81;30.77;98550.78;4504313;31;20076;-83
2022/06/29 08:31:03;;;;;;;13.40;5.35;;;;;;;34.79;31.08;98550.16;4504357;31;20122;-83
2022/06/29 08:33:29;;;;;;;14.53;6.93;;;;;;;34.84;31.44;98547.53;4504236;31;20128;-83
2022/06/29 08:35:54;;;;;;;9.77;5.40;;;;;;;35.03;30.97;98539.91;4504169;31;20104;-83
2022/06/29 08:38:20;;;;;;;12.25;6.00;;;;;;;35.16;29.63;98541.50;4489810;31;20104;-82
2022/06/29 08:40:47;;;;;;;16.70;6.07;;;;;;;35.18;30.03;98534.72;4489702;31;20097;-82
2022/06/29 08:43:16;;;;;;;12.52;6.30;;;;;;;34.95;30.77;98543.88;4489928;31;20502;-82
2022/06/29 08:45:44;;;;;;;12.20;6.62;;;;;;;35.25;30.54;98531.78;4504250;31;20423;-83
2022/06/29 08:48:11;;;;;;;12.02;6.50;;;;;;;35.30;30.66;98529.13;4504200;31;20109;-83
2022/06/29 08:50:38;;;;;;;17.87;6.70;;;;;;;35.26;30.08;98525.25;4504242;31;20405;-83
2022/06/29 08:53:05;;;;;;;12.20;5.43;;;;;;;35.43;29.56;98526.03;4489787;31;20108;-82
2022/06/29 08:55:30;;;;;;;;;;;;;;;35.37;29.55;98527.06;4504475;31;20469;-83
2022/06/29 08:57:56;;;;;;;12.10;5.40;;;;;;;35.57;28.93;98523.75;4489869;31;19980;-82
2022/06/29 09:00:24;;;;;;;20.40;7.23;;;;;;;35.53;28.95;98528.09;4503761;31;20104;-82
2022/06/29 09:02:50;;;;;;;12.82;5.50;;;;;;;35.51;28.88;98523.97;4504179;31;20092;-82
2022/06/29 09:05:15;;;;;;;12.68;5.60;;;;;;;35.51;28.56;98519.28;4489594;31;20084;-82
2022/06/29 09:07:41;;;;;;;10.03;5.17;;;;;;;35.41;28.45;98525.47;4503965;31;20339;-83
2022/06/29 09:10:11;;;;;;;10.60;4.97;;;;;;;35.44;27.58;98522.19;4504080;31;20112;-83
2022/06/29 09:12:36;;;;;;;12.40;5.15;;;;;;;35.40;28.11;98515.56;4489681;31;20467;-83
2022/06/29 09:15:04;;;;;;;13.73;5.12;;;;;;;35.41;28.36;98517.25;4503792;31;20080;-82
2022/06/29 09:17:33;;;;;;;12.32;5.18;;;;;;;35.41;28.71;98511.78;4503679;31;20102;-82
2022/06/29 09:19:59;;;;;;;11.65;5.10;;;;;;;35.46;27.90;98508.25;4489333;31;20375;-83
2022/06/29 09:22:25;;;;;;;14.75;4.45;;;;;;;35.61;27.51;98516.69;4503678;31;20095;-83
2022/06/29 09:24:51;;;;;;;19.33;5.23;;;;;;;35.69;27.66;98509.97;4489356;31;20083;-83
2022/06/29 09:27:17;;;;;;;9.77;4.40;;;;;;;35.75;27.61;98502.66;4489642;31;20098;-83
2022/06/29 09:29:43;;;;;;;10.27;4.95;;;;;;;35.91;26.63;98500.91;4489161;31;20528;-83
2022/06/29 09:32:13;;;;;;;11.07;5.07;;;;;;;35.89;26.44;98505.81;4502930;31;20796;-83
2022/06/29 09:34:47;;;;;;;17.50;5.32;;;;;;;35.89;26.30;98503.94;4503595;31;20079;-83
2022/06/29 09:37:17;;;;;;;15.07;5.45;;;;;;;35.94;25.64;98503.16;4476048;31;20079;-82
2022/06/29 09:39:48;;;;;;;10.38;4.82;;;;;;;35.94;25.89;98514.13;4503445;31;20368;-82
2022/06/29 09:42:14;;;;;;;15.68;4.55;;;;;;;35.92;25.93;98502.59;4489217;31;20104;-83
2022/06/29 09:44:40;;;;;;;17.63;5.97;;;;;;;35.98;26.45;98504.28;4503538;31;20458;-83
2022/06/29 09:47:19;;;;;;;9.68;4.70;;;;;;;35.90;26.09;98502.84;4503370;31;20150;-83
2022/06/29 09:49:49;;;;;;;10.27;4.80;;;;;;;35.99;25.24;98500.50;4503497;31;20096;-82
2022/06/29 09:52:15;;;;;;;25.77;5.18;;;;;;;35.98;25.70;98496.06;4475826;31;20108;-83
2022/06/29 09:54:58;;;;;;;14.70;3.72;;;;;;;35.98;25.61;98499.63;4488997;31;20107;-82
2022/06/29 09:57:28;;;;;;;8.43;3.83;;;;;;;35.96;25.23;98490.03;4489072;31;20119;-83
2022/06/29 10:02:53;;;;;;;9.10;3.92;;;;;;;36.04;24.35;98489.56;4503610;31;20142;-82
2022/06/29 10:05:23;;;;;;;9.60;3.78;;;;;;;35.92;24.30;98486.13;4503400;31;20139;-82
2022/06/29 10:07:51;;;;;;;8.25;3.55;;;;;;;35.99;24.29;98486.78;4503404;31;20080;-83
2022/06/29 10:10:19;;;;;;;10.60;3.65;;;;;;;35.95;23.69;98480.12;4503514;31;20148;-83
2022/06/29 10:16:28;;;;;;;8.45;3.78;;;;;;;36.06;24.59;98464.62;4503388;31;20114;-83
2022/06/29 10:18:59;;;;;;;11.35;3.83;;;;;;;36.11;24.37;98468.25;4410119;32;20112;-82
2022/06/29 10:21:30;;;;;;;20.05;4.20;;;;;;;36.08;24.57;98466.00;4423065;32;20156;-83
2022/06/29 10:24:02;;;;;;;7.43;3.60;;;;;;;35.95;23.76;98463.69;4410458;32;20090;-82
2022/06/29 10:26:34;;;;;;;8.90;3.80;;;;;;;36.00;23.75;98461.00;4423194;32;20113;-83
2022/06/29 10:29:05;;;;;;;9.00;3.80;;;;;;;35.89;24.08;98467.44;4423014;32;20101;-84
2022/06/29 10:31:59;;;;;;;10.32;3.67;;;;;;;35.82;23.77;98459.44;4423064;32;20125;-83
2022/06/29 10:34:31;;;;;;;19.12;4.72;;;;;;;35.81;24.23;98446.81;4422960;32;20102;-82
2022/06/29 10:37:02;;;;;;;10.60;3.90;;;;;;;35.86;24.73;98454.28;4422838;32;20178;-83
2022/06/29 10:39:50;;;;;;;11.50;3.90;;;;;;;35.82;25.12;98446.56;4422819;32;20093;-83
2022/06/29 10:45:13;;;;;;;7.60;3.60;;;;;;;35.87;24.23;98437.56;4422831;32;20165;-83
2022/06/29 10:47:39;;;;;;;8.75;3.58;;;;;;;35.82;24.36;98440.25;4423013;32;20085;-82
2022/06/29 10:50:18;;;;;;;9.20;3.42;;;;;;;35.81;23.60;98446.81;4422945;32;20086;-83
2022/06/29 10:52:46;;;;;;;8.07;3.50;;;;;;;35.87;22.91;98432.06;4462075;31;20510;-83
2022/06/29 10:55:12;;;;;;;10.95;3.83;;;;;;;35.83;22.95;98425.44;4503027;31;20155;-83
2022/06/29 10:57:39;;;;;;;13.33;3.80;;;;;;;35.93;23.00;98422.84;4488647;31;20153;-83
2022/06/29 11:00:09;;;;;;;7.62;3.17;;;;;;;35.94;22.44;98423.66;4488678;31;20102;-82
2022/06/29 11:02:38;;;;;;;57.60;6.50;;;;;;;35.98;22.15;98428.34;4471507;32;20112;-83
2022/06/29 11:05:04;;;;;;;16.17;4.75;;;;;;;35.96;22.45;98421.47;4470401;32;20181;-82
2022/06/29 11:12:58;;;;;;;9.38;3.22;;;;;;;36.13;21.53;98419.47;4471640;32;20165;-82
2022/06/29 11:15:39;;;;;;;16.43;4.13;;;;;;;36.03;21.69;98414.72;4470241;32;20120;-83
2022/06/29 11:18:27;;;;;;;9.13;3.33;;;;;;;36.11;22.06;98427.12;4471410;32;20077;-82
2022/06/29 11:20:53;;;;;;;12.07;3.30;;;;;;;36.05;22.09;98416.37;4471697;32;20085;-83
2022/06/29 11:23:20;;;;;;;10.90;3.55;;;;;;;36.13;21.67;98411.25;4470259;32;20112;-82
2022/06/29 11:25:47;;;;;;;11.90;3.95;;;;;;;35.99;22.24;98416.31;4471327;32;20097;-82
2022/06/29 11:28:15;;;;;;;7.10;3.05;;;;;;;36.06;20.97;98410.59;4470053;32;20151;-82
2022/06/29 11:30:41;;;;;;;20.65;4.20;;;;;;;36.06;20.93;98407.06;4469960;32;20172;-83
2022/06/29 11:33:10;;;;;;;19.13;4.10;;;;;;;36.08;20.64;98399.38;4457087;32;20487;-83
2022/06/29 11:35:38;;;;;;;14.65;3.87;;;;;;;36.16;21.00;98393.44;4469940;32;20088;-82
2022/06/29 11:38:05;;;;;;;10.25;3.50;;;;;;;36.07;21.04;98392.28;4471165;32;20119;-83
2022/06/29 11:40:41;;;;;;;;;;;;;;;36.10;21.16;98384.31;4471572;32;20081;-83
2022/06/29 11:43:16;;;;;;;8.90;3.33;;;;;;;36.16;20.10;98386.09;4470058;32;20014;-83
2022/06/29 11:45:56;;;;;;;12.05;3.95;;;;;;;35.99;20.62;98377.13;4470121;32;20126;-83
2022/06/29 11:48:28;;;;;;;8.82;3.45;;;;;;;35.98;21.39;98379.00;4469984;32;20080;-83